Terminal Aerodrome Forecast
Issued by NWS Raleigh/Durham, NC

Home | Current Version | Previous Version | Text Only | Print | Product List | Glossary On
Versions: 1 2 3 4 5 6 7 8 9 10 11 12 13 14 15 16 17 18 19 20 21 22 23 24 25 26
000
FTUS42 KRAH 232340
TAFGSO
TAF
KGSO 232340Z 2400/2424 VRB04KT P6SM SCT110
     FM240700 VRB03KT 4SM BR BKN100
      TEMPO 2412/2415 1 1/2SM BR BKN020
     FM241500 21007KT P6SM BKN020 OVC100
     FM242200 21009KT P6SM SCT030 BKN100=

USA.gov is the U.S. government's official web portal to all federal, state and local government web resources and services.